Killbuck, Ohio
Current Conditions -  °F | °C
As of 6:56 AM on Friday 24 Oct 2014 (Local Time) from KBJJ Reporting Station
Haze Haze  
Wind Chill: 37°   Ceiling: Unl
Heat Index: 37°   Visibility: 6mi
Dew Point: 33°   Wind: 0mph
Humidity: 86%   Direction: NA
Pressure: 30.11"   Gusts: NA
Location:  40.5°N, 81.98°W
Report Text: KBJJ 241056Z AUTO 00000KT 6SM BR CLR 03/01 A3011 RMK AO2 SLP204 T00280006 TSNO
Loading
Personal Weather Stations






























Interactive Weather Map
Tropical Storm Tracking
New forecast layout! Learn more

10-Day Weather Forecast

Advertisements
Track Severe Weather on mobile